sensor_id;sensor_type;location;lat;lon;timestamp;temperature;humidity
57390;DHT22;43217;52.694;6.214;2023-11-21T00:00:14;8.70;99.90
57390;DHT22;43217;52.694;6.214;2023-11-21T00:02:41;8.70;99.90
57390;DHT22;43217;52.694;6.214;2023-11-21T00:05:11;8.70;99.90
57390;DHT22;43217;52.694;6.214;2023-11-21T00:07:38;8.80;99.90
57390;DHT22;43217;52.694;6.214;2023-11-21T00:10:04;8.80;99.90
57390;DHT22;43217;52.694;6.214;2023-11-21T00:12:31;8.80;99.90
57390;DHT22;43217;52.694;6.214;2023-11-21T00:14:57;8.80;99.90
57390;DHT22;43217;52.694;6.214;2023-11-21T00:17:23;8.80;99.90
57390;DHT22;43217;52.694;6.214;2023-11-21T00:19:48;8.80;99.90
57390;DHT22;43217;52.694;6.214;2023-11-21T00:22:14;8.80;99.90
57390;DHT22;43217;52.694;6.214;2023-11-21T00:24:41;8.80;99.90
57390;DHT22;43217;52.694;6.214;2023-11-21T00:27:06;8.90;99.90
57390;DHT22;43217;52.694;6.214;2023-11-21T00:29:32;8.90;99.90
57390;DHT22;43217;52.694;6.214;2023-11-21T00:31:58;8.90;99.90
57390;DHT22;43217;52.694;6.214;2023-11-21T00:34:23;8.90;99.90
57390;DHT22;43217;52.694;6.214;2023-11-21T00:36:49;8.90;99.90
57390;DHT22;43217;52.694;6.214;2023-11-21T00:39:15;8.90;99.90
57390;DHT22;43217;52.694;6.214;2023-11-21T00:41:41;8.90;99.90
57390;DHT22;43217;52.694;6.214;2023-11-21T00:44:07;8.90;99.90
57390;DHT22;43217;52.694;6.214;2023-11-21T00:46:33;8.90;99.90
57390;DHT22;43217;52.694;6.214;2023-11-21T00:48:58;8.90;99.90
57390;DHT22;43217;52.694;6.214;2023-11-21T00:51:24;8.90;99.90
57390;DHT22;43217;52.694;6.214;2023-11-21T00:53:50;8.90;99.90
57390;DHT22;43217;52.694;6.214;2023-11-21T00:56:16;8.90;99.90
57390;DHT22;43217;52.694;6.214;2023-11-21T00:58:42;8.90;99.90
57390;DHT22;43217;52.694;6.214;2023-11-21T01:01:15;8.90;99.90
57390;DHT22;43217;52.694;6.214;2023-11-21T01:03:41;8.90;99.90
57390;DHT22;43217;52.694;6.214;2023-11-21T01:06:07;8.90;99.90
57390;DHT22;43217;52.694;6.214;2023-11-21T01:08:32;8.90;99.90
57390;DHT22;43217;52.694;6.214;2023-11-21T01:10:58;8.90;99.90
57390;DHT22;43217;52.694;6.214;2023-11-21T01:13:23;8.90;99.90
57390;DHT22;43217;52.694;6.214;2023-11-21T01:15:49;8.90;99.90
57390;DHT22;43217;52.694;6.214;2023-11-21T01:18:15;8.90;99.90
57390;DHT22;43217;52.694;6.214;2023-11-21T01:20:40;8.90;99.90
57390;DHT22;43217;52.694;6.214;2023-11-21T01:23:06;8.90;99.90
57390;DHT22;43217;52.694;6.214;2023-11-21T01:25:31;8.90;99.90
57390;DHT22;43217;52.694;6.214;2023-11-21T01:27:57;8.90;99.90
57390;DHT22;43217;52.694;6.214;2023-11-21T01:30:22;8.90;99.90
57390;DHT22;43217;52.694;6.214;2023-11-21T01:32:48;8.90;99.90
57390;DHT22;43217;52.694;6.214;2023-11-21T01:35:14;8.90;99.90
57390;DHT22;43217;52.694;6.214;2023-11-21T01:37:39;8.90;99.90
57390;DHT22;43217;52.694;6.214;2023-11-21T01:40:05;8.90;99.90
57390;DHT22;43217;52.694;6.214;2023-11-21T01:42:35;8.90;99.90
57390;DHT22;43217;52.694;6.214;2023-11-21T01:45:01;8.90;99.90
57390;DHT22;43217;52.694;6.214;2023-11-21T01:47:31;8.90;99.90
57390;DHT22;43217;52.694;6.214;2023-11-21T01:49:58;8.90;99.90
57390;DHT22;43217;52.694;6.214;2023-11-21T01:52:24;8.90;99.90
57390;DHT22;43217;52.694;6.214;2023-11-21T01:54:50;9.00;99.90
57390;DHT22;43217;52.694;6.214;2023-11-21T01:57:15;9.00;99.90
57390;DHT22;43217;52.694;6.214;2023-11-21T01:59:42;9.00;99.90
57390;DHT22;43217;52.694;6.214;2023-11-21T02:02:08;8.90;99.90
57390;DHT22;43217;52.694;6.214;2023-11-21T02:04:35;8.90;99.90
57390;DHT22;43217;52.694;6.214;2023-11-21T02:07:02;9.00;99.90
57390;DHT22;43217;52.694;6.214;2023-11-21T02:09:31;8.90;99.90
57390;DHT22;43217;52.694;6.214;2023-11-21T02:11:58;8.90;99.90
57390;DHT22;43217;52.694;6.214;2023-11-21T02:14:25;8.90;99.90
57390;DHT22;43217;52.694;6.214;2023-11-21T02:16:52;8.90;99.90
57390;DHT22;43217;52.694;6.214;2023-11-21T02:19:19;8.90;99.90
57390;DHT22;43217;52.694;6.214;2023-11-21T02:21:46;8.90;99.90
57390;DHT22;43217;52.694;6.214;2023-11-21T02:24:13;8.90;99.90
57390;DHT22;43217;52.694;6.214;2023-11-21T02:26:39;8.90;99.90
57390;DHT22;43217;52.694;6.214;2023-11-21T02:29:04;8.90;99.90
57390;DHT22;43217;52.694;6.214;2023-11-21T02:31:30;8.90;99.90
57390;DHT22;43217;52.694;6.214;2023-11-21T02:33:58;8.90;99.90
57390;DHT22;43217;52.694;6.214;2023-11-21T02:36:24;9.00;99.90
57390;DHT22;43217;52.694;6.214;2023-11-21T02:38:49;9.00;99.90
57390;DHT22;43217;52.694;6.214;2023-11-21T02:41:15;9.00;99.90
57390;DHT22;43217;52.694;6.214;2023-11-21T02:43:41;9.00;99.90
57390;DHT22;43217;52.694;6.214;2023-11-21T02:46:06;9.00;99.90
57390;DHT22;43217;52.694;6.214;2023-11-21T02:48:33;9.00;99.90
57390;DHT22;43217;52.694;6.214;2023-11-21T02:50:59;9.00;99.90
57390;DHT22;43217;52.694;6.214;2023-11-21T02:53:24;9.00;99.90
57390;DHT22;43217;52.694;6.214;2023-11-21T02:55:51;8.90;99.90
57390;DHT22;43217;52.694;6.214;2023-11-21T02:58:17;8.90;99.90
57390;DHT22;43217;52.694;6.214;2023-11-21T03:00:42;8.90;99.90
57390;DHT22;43217;52.694;6.214;2023-11-21T03:03:08;9.00;99.90
57390;DHT22;43217;52.694;6.214;2023-11-21T03:05:34;8.90;99.90
57390;DHT22;43217;52.694;6.214;2023-11-21T03:08:01;8.90;99.90
57390;DHT22;43217;52.694;6.214;2023-11-21T03:10:26;8.90;99.90
57390;DHT22;43217;52.694;6.214;2023-11-21T03:12:52;9.00;99.90
57390;DHT22;43217;52.694;6.214;2023-11-21T03:15:18;8.90;99.90
57390;DHT22;43217;52.694;6.214;2023-11-21T03:17:43;8.90;99.90
57390;DHT22;43217;52.694;6.214;2023-11-21T03:20:09;8.90;99.90
57390;DHT22;43217;52.694;6.214;2023-11-21T03:22:39;9.00;99.90
57390;DHT22;43217;52.694;6.214;2023-11-21T03:25:05;9.00;99.90
57390;DHT22;43217;52.694;6.214;2023-11-21T03:27:31;8.90;99.90
57390;DHT22;43217;52.694;6.214;2023-11-21T03:29:57;8.90;99.90
57390;DHT22;43217;52.694;6.214;2023-11-21T03:32:22;9.00;99.90
57390;DHT22;43217;52.694;6.214;2023-11-21T03:34:57;9.00;99.90
57390;DHT22;43217;52.694;6.214;2023-11-21T03:37:23;8.90;99.90
57390;DHT22;43217;52.694;6.214;2023-11-21T03:39:48;9.00;99.90
57390;DHT22;43217;52.694;6.214;2023-11-21T03:42:14;8.90;99.90
57390;DHT22;43217;52.694;6.214;2023-11-21T03:44:40;8.90;99.90
57390;DHT22;43217;52.694;6.214;2023-11-21T03:47:05;8.90;99.90
57390;DHT22;43217;52.694;6.214;2023-11-21T03:49:31;8.90;99.90
57390;DHT22;43217;52.694;6.214;2023-11-21T03:51:56;8.90;99.90
57390;DHT22;43217;52.694;6.214;2023-11-21T03:54:22;8.90;99.90
57390;DHT22;43217;52.694;6.214;2023-11-21T03:56:48;8.90;99.90
57390;DHT22;43217;52.694;6.214;2023-11-21T03:59:13;8.90;99.90
57390;DHT22;43217;52.694;6.214;2023-11-21T04:01:39;8.90;99.90
57390;DHT22;43217;52.694;6.214;2023-11-21T04:04:04;8.90;99.90
57390;DHT22;43217;52.694;6.214;2023-11-21T04:06:30;8.90;99.90
57390;DHT22;43217;52.694;6.214;2023-11-21T04:08:58;9.00;99.90
57390;DHT22;43217;52.694;6.214;2023-11-21T04:11:23;8.90;99.90
57390;DHT22;43217;52.694;6.214;2023-11-21T04:13:49;8.90;99.90
57390;DHT22;43217;52.694;6.214;2023-11-21T04:16:15;8.90;99.90
57390;DHT22;43217;52.694;6.214;2023-11-21T04:18:41;9.00;99.90
57390;DHT22;43217;52.694;6.214;2023-11-21T04:21:07;9.00;99.90
57390;DHT22;43217;52.694;6.214;2023-11-21T04:23:33;9.00;99.90
57390;DHT22;43217;52.694;6.214;2023-11-21T04:25:59;9.00;99.90
57390;DHT22;43217;52.694;6.214;2023-11-21T04:28:25;9.00;99.90
57390;DHT22;43217;52.694;6.214;2023-11-21T04:30:51;9.00;99.90
57390;DHT22;43217;52.694;6.214;2023-11-21T04:33:17;9.00;99.90
57390;DHT22;43217;52.694;6.214;2023-11-21T04:35:42;9.00;99.90
57390;DHT22;43217;52.694;6.214;2023-11-21T04:38:08;9.00;99.90
57390;DHT22;43217;52.694;6.214;2023-11-21T04:40:34;9.00;99.90
57390;DHT22;43217;52.694;6.214;2023-11-21T04:42:59;9.10;99.90
57390;DHT22;43217;52.694;6.214;2023-11-21T04:45:25;9.10;99.90
57390;DHT22;43217;52.694;6.214;2023-11-21T04:47:50;9.10;99.90
57390;DHT22;43217;52.694;6.214;2023-11-21T04:50:18;9.10;99.90
57390;DHT22;43217;52.694;6.214;2023-11-21T04:52:44;9.10;99.90
57390;DHT22;43217;52.694;6.214;2023-11-21T04:55:09;9.10;99.90
57390;DHT22;43217;52.694;6.214;2023-11-21T04:57:36;9.10;99.90
57390;DHT22;43217;52.694;6.214;2023-11-21T05:00:02;9.10;99.90
57390;DHT22;43217;52.694;6.214;2023-11-21T05:02:34;9.20;99.90
57390;DHT22;43217;52.694;6.214;2023-11-21T05:05:00;9.20;99.90
57390;DHT22;43217;52.694;6.214;2023-11-21T05:07:25;9.20;99.90
57390;DHT22;43217;52.694;6.214;2023-11-21T05:09:54;9.20;99.90
57390;DHT22;43217;52.694;6.214;2023-11-21T05:12:22;9.20;99.90
57390;DHT22;43217;52.694;6.214;2023-11-21T05:14:49;9.20;99.90
57390;DHT22;43217;52.694;6.214;2023-11-21T05:17:14;9.20;99.90
57390;DHT22;43217;52.694;6.214;2023-11-21T05:19:40;9.20;99.90
57390;DHT22;43217;52.694;6.214;2023-11-21T05:22:06;9.20;99.90
57390;DHT22;43217;52.694;6.214;2023-11-21T05:24:33;9.20;99.90
57390;DHT22;43217;52.694;6.214;2023-11-21T05:26:59;9.20;99.90
57390;DHT22;43217;52.694;6.214;2023-11-21T05:29:24;9.20;99.90
57390;DHT22;43217;52.694;6.214;2023-11-21T05:31:51;9.20;99.90
57390;DHT22;43217;52.694;6.214;2023-11-21T05:34:16;9.20;99.90
57390;DHT22;43217;52.694;6.214;2023-11-21T05:36:43;9.30;99.90
57390;DHT22;43217;52.694;6.214;2023-11-21T05:39:11;9.20;99.90
57390;DHT22;43217;52.694;6.214;2023-11-21T05:41:37;9.30;99.90
57390;DHT22;43217;52.694;6.214;2023-11-21T05:44:02;9.30;99.90
57390;DHT22;43217;52.694;6.214;2023-11-21T05:46:28;9.30;99.90
57390;DHT22;43217;52.694;6.214;2023-11-21T05:48:53;9.30;99.90
57390;DHT22;43217;52.694;6.214;2023-11-21T05:51:20;9.30;99.90
57390;DHT22;43217;52.694;6.214;2023-11-21T05:53:45;9.30;99.90
57390;DHT22;43217;52.694;6.214;2023-11-21T05:56:12;9.30;99.90
57390;DHT22;43217;52.694;6.214;2023-11-21T05:58:39;9.30;99.90
57390;DHT22;43217;52.694;6.214;2023-11-21T06:01:05;9.30;99.90
57390;DHT22;43217;52.694;6.214;2023-11-21T06:03:33;9.30;99.90
57390;DHT22;43217;52.694;6.214;2023-11-21T06:05:58;9.30;99.90
57390;DHT22;43217;52.694;6.214;2023-11-21T06:08:24;9.30;99.90
57390;DHT22;43217;52.694;6.214;2023-11-21T06:10:50;9.30;99.90
57390;DHT22;43217;52.694;6.214;2023-11-21T06:13:15;9.30;99.90
57390;DHT22;43217;52.694;6.214;2023-11-21T06:15:41;9.30;99.90
57390;DHT22;43217;52.694;6.214;2023-11-21T06:18:07;9.30;99.90
57390;DHT22;43217;52.694;6.214;2023-11-21T06:20:35;9.30;99.90
57390;DHT22;43217;52.694;6.214;2023-11-21T06:23:02;9.30;99.90
57390;DHT22;43217;52.694;6.214;2023-11-21T06:25:29;9.30;99.90
57390;DHT22;43217;52.694;6.214;2023-11-21T06:27:55;9.30;99.90
57390;DHT22;43217;52.694;6.214;2023-11-21T06:30:21;9.30;99.90
57390;DHT22;43217;52.694;6.214;2023-11-21T06:32:48;9.30;99.90
57390;DHT22;43217;52.694;6.214;2023-11-21T06:35:15;9.30;99.90
57390;DHT22;43217;52.694;6.214;2023-11-21T06:37:40;9.30;99.90
57390;DHT22;43217;52.694;6.214;2023-11-21T06:40:07;9.30;99.90
57390;DHT22;43217;52.694;6.214;2023-11-21T06:42:32;9.30;99.90
57390;DHT22;43217;52.694;6.214;2023-11-21T06:44:59;9.30;99.90
57390;DHT22;43217;52.694;6.214;2023-11-21T06:47:25;9.30;99.90
57390;DHT22;43217;52.694;6.214;2023-11-21T06:49:52;9.30;99.90
57390;DHT22;43217;52.694;6.214;2023-11-21T06:52:20;9.30;99.90
57390;DHT22;43217;52.694;6.214;2023-11-21T06:54:47;9.30;99.90
57390;DHT22;43217;52.694;6.214;2023-11-21T06:57:13;9.30;99.90
57390;DHT22;43217;52.694;6.214;2023-11-21T06:59:39;9.30;99.90
57390;DHT22;43217;52.694;6.214;2023-11-21T07:02:04;9.30;99.90
57390;DHT22;43217;52.694;6.214;2023-11-21T07:04:38;9.20;99.90
57390;DHT22;43217;52.694;6.214;2023-11-21T07:07:04;9.30;99.90
57390;DHT22;43217;52.694;6.214;2023-11-21T07:09:30;9.20;99.90
57390;DHT22;43217;52.694;6.214;2023-11-21T07:11:56;9.30;99.90
57390;DHT22;43217;52.694;6.214;2023-11-21T07:14:22;9.30;99.90
57390;DHT22;43217;52.694;6.214;2023-11-21T07:16:48;9.30;99.90
57390;DHT22;43217;52.694;6.214;2023-11-21T07:19:14;9.30;99.90
57390;DHT22;43217;52.694;6.214;2023-11-21T07:21:40;9.30;99.90
57390;DHT22;43217;52.694;6.214;2023-11-21T07:24:07;9.30;99.90
57390;DHT22;43217;52.694;6.214;2023-11-21T07:26:34;9.30;99.90
57390;DHT22;43217;52.694;6.214;2023-11-21T07:29:00;9.30;99.90
57390;DHT22;43217;52.694;6.214;2023-11-21T07:31:26;9.30;99.90
57390;DHT22;43217;52.694;6.214;2023-11-21T07:33:52;9.30;99.90
57390;DHT22;43217;52.694;6.214;2023-11-21T07:36:19;9.30;99.90
57390;DHT22;43217;52.694;6.214;2023-11-21T07:38:46;9.30;99.90
57390;DHT22;43217;52.694;6.214;2023-11-21T07:41:13;9.30;99.90
57390;DHT22;43217;52.694;6.214;2023-11-21T07:43:41;9.30;99.90
57390;DHT22;43217;52.694;6.214;2023-11-21T07:46:07;9.30;99.90
57390;DHT22;43217;52.694;6.214;2023-11-21T07:48:34;9.30;99.90
57390;DHT22;43217;52.694;6.214;2023-11-21T07:51:02;9.30;99.90
57390;DHT22;43217;52.694;6.214;2023-11-21T07:53:29;9.30;99.90
57390;DHT22;43217;52.694;6.214;2023-11-21T07:56:09;9.40;99.90
57390;DHT22;43217;52.694;6.214;2023-11-21T07:58:38;9.40;99.90
57390;DHT22;43217;52.694;6.214;2023-11-21T08:01:04;9.40;99.90
57390;DHT22;43217;52.694;6.214;2023-11-21T08:03:30;9.40;99.90
57390;DHT22;43217;52.694;6.214;2023-11-21T08:05:57;9.40;99.90
57390;DHT22;43217;52.694;6.214;2023-11-21T08:08:23;9.40;99.90
57390;DHT22;43217;52.694;6.214;2023-11-21T08:10:49;9.50;99.90
57390;DHT22;43217;52.694;6.214;2023-11-21T08:13:25;9.50;99.90
57390;DHT22;43217;52.694;6.214;2023-11-21T08:15:54;9.50;99.90
57390;DHT22;43217;52.694;6.214;2023-11-21T08:18:19;9.50;99.90
57390;DHT22;43217;52.694;6.214;2023-11-21T08:20:45;9.50;99.90
57390;DHT22;43217;52.694;6.214;2023-11-21T08:23:16;9.50;99.90
57390;DHT22;43217;52.694;6.214;2023-11-21T08:25:43;9.50;99.90
57390;DHT22;43217;52.694;6.214;2023-11-21T08:28:09;9.50;99.90
57390;DHT22;43217;52.694;6.214;2023-11-21T08:30:35;9.50;99.90
57390;DHT22;43217;52.694;6.214;2023-11-21T08:33:01;9.60;99.90
57390;DHT22;43217;52.694;6.214;2023-11-21T08:35:29;9.60;99.90
57390;DHT22;43217;52.694;6.214;2023-11-21T08:37:54;9.60;99.90
57390;DHT22;43217;52.694;6.214;2023-11-21T08:40:20;9.60;99.90
57390;DHT22;43217;52.694;6.214;2023-11-21T08:42:48;9.60;99.90
57390;DHT22;43217;52.694;6.214;2023-11-21T08:45:17;9.60;99.90
57390;DHT22;43217;52.694;6.214;2023-11-21T08:47:43;9.60;99.90
57390;DHT22;43217;52.694;6.214;2023-11-21T08:50:09;9.60;99.90
57390;DHT22;43217;52.694;6.214;2023-11-21T08:52:37;9.50;99.90
57390;DHT22;43217;52.694;6.214;2023-11-21T08:55:04;9.50;99.90
57390;DHT22;43217;52.694;6.214;2023-11-21T08:57:36;9.50;99.90
57390;DHT22;43217;52.694;6.214;2023-11-21T09:00:06;9.50;99.90
57390;DHT22;43217;52.694;6.214;2023-11-21T09:02:40;9.50;99.90
57390;DHT22;43217;52.694;6.214;2023-11-21T09:05:08;9.50;99.90
57390;DHT22;43217;52.694;6.214;2023-11-21T09:07:34;9.50;99.90
57390;DHT22;43217;52.694;6.214;2023-11-21T09:10:01;9.50;99.90
57390;DHT22;43217;52.694;6.214;2023-11-21T09:12:26;9.50;99.90
57390;DHT22;43217;52.694;6.214;2023-11-21T09:14:52;9.50;99.90
57390;DHT22;43217;52.694;6.214;2023-11-21T09:17:17;9.50;99.90
57390;DHT22;43217;52.694;6.214;2023-11-21T09:19:44;9.50;99.90
57390;DHT22;43217;52.694;6.214;2023-11-21T09:22:12;9.50;99.90
57390;DHT22;43217;52.694;6.214;2023-11-21T09:24:38;9.50;99.90
57390;DHT22;43217;52.694;6.214;2023-11-21T09:27:04;9.50;99.90
57390;DHT22;43217;52.694;6.214;2023-11-21T09:29:30;9.50;99.90
57390;DHT22;43217;52.694;6.214;2023-11-21T09:31:57;9.50;99.90
57390;DHT22;43217;52.694;6.214;2023-11-21T09:34:27;9.50;99.90
57390;DHT22;43217;52.694;6.214;2023-11-21T09:36:53;9.50;99.90
57390;DHT22;43217;52.694;6.214;2023-11-21T09:39:19;9.50;99.90
57390;DHT22;43217;52.694;6.214;2023-11-21T09:41:52;9.50;99.90
57390;DHT22;43217;52.694;6.214;2023-11-21T09:44:35;9.60;99.90
57390;DHT22;43217;52.694;6.214;2023-11-21T09:47:02;9.50;99.90
57390;DHT22;43217;52.694;6.214;2023-11-21T09:49:28;9.60;99.90
57390;DHT22;43217;52.694;6.214;2023-11-21T09:52:01;9.60;99.90
57390;DHT22;43217;52.694;6.214;2023-11-21T09:54:31;9.60;99.90
57390;DHT22;43217;52.694;6.214;2023-11-21T09:56:59;9.60;99.90
57390;DHT22;43217;52.694;6.214;2023-11-21T09:59:30;9.60;99.90
57390;DHT22;43217;52.694;6.214;2023-11-21T10:01:57;9.50;99.90
57390;DHT22;43217;52.694;6.214;2023-11-21T10:04:24;9.50;99.90
57390;DHT22;43217;52.694;6.214;2023-11-21T10:06:50;9.50;99.90
57390;DHT22;43217;52.694;6.214;2023-11-21T10:09:16;9.50;99.90
57390;DHT22;43217;52.694;6.214;2023-11-21T10:11:43;9.40;99.90
57390;DHT22;43217;52.694;6.214;2023-11-21T10:14:11;9.40;99.90
57390;DHT22;43217;52.694;6.214;2023-11-21T10:16:38;9.40;99.90
57390;DHT22;43217;52.694;6.214;2023-11-21T10:19:05;9.40;99.90
57390;DHT22;43217;52.694;6.214;2023-11-21T10:21:35;9.40;99.90
57390;DHT22;43217;52.694;6.214;2023-11-21T10:24:01;9.40;99.90
57390;DHT22;43217;52.694;6.214;2023-11-21T10:26:28;9.40;99.90
57390;DHT22;43217;52.694;6.214;2023-11-21T10:29:01;9.40;99.90
57390;DHT22;43217;52.694;6.214;2023-11-21T10:31:30;9.40;99.90
57390;DHT22;43217;52.694;6.214;2023-11-21T10:34:15;9.40;99.90
57390;DHT22;43217;52.694;6.214;2023-11-21T10:36:41;9.30;99.90
57390;DHT22;43217;52.694;6.214;2023-11-21T10:39:07;9.20;99.90
57390;DHT22;43217;52.694;6.214;2023-11-21T10:41:33;9.20;99.90
57390;DHT22;43217;52.694;6.214;2023-11-21T10:44:02;9.20;99.90
57390;DHT22;43217;52.694;6.214;2023-11-21T10:46:32;9.20;99.90
57390;DHT22;43217;52.694;6.214;2023-11-21T10:48:58;9.30;99.90
57390;DHT22;43217;52.694;6.214;2023-11-21T10:51:23;9.30;99.90
57390;DHT22;43217;52.694;6.214;2023-11-21T10:53:53;9.40;99.90
57390;DHT22;43217;52.694;6.214;2023-11-21T10:56:23;9.40;99.90
57390;DHT22;43217;52.694;6.214;2023-11-21T10:58:49;9.40;99.90
57390;DHT22;43217;52.694;6.214;2023-11-21T11:01:19;9.50;99.90
57390;DHT22;43217;52.694;6.214;2023-11-21T11:03:47;9.50;99.90
57390;DHT22;43217;52.694;6.214;2023-11-21T11:06:13;9.40;99.90
57390;DHT22;43217;52.694;6.214;2023-11-21T11:08:40;9.40;99.90
57390;DHT22;43217;52.694;6.214;2023-11-21T11:11:07;9.40;99.90
57390;DHT22;43217;52.694;6.214;2023-11-21T11:13:34;9.40;99.90
57390;DHT22;43217;52.694;6.214;2023-11-21T11:16:00;9.40;99.90
57390;DHT22;43217;52.694;6.214;2023-11-21T11:18:33;9.30;99.90
57390;DHT22;43217;52.694;6.214;2023-11-21T11:21:11;9.30;99.90
57390;DHT22;43217;52.694;6.214;2023-11-21T11:24:13;9.30;99.90
57390;DHT22;43217;52.694;6.214;2023-11-21T11:26:48;9.30;99.90
57390;DHT22;43217;52.694;6.214;2023-11-21T11:32:03;9.20;99.90
57390;DHT22;43217;52.694;6.214;2023-11-21T11:34:35;9.20;99.90
57390;DHT22;43217;52.694;6.214;2023-11-21T11:37:05;9.20;99.90
57390;DHT22;43217;52.694;6.214;2023-11-21T11:39:42;9.20;99.90
57390;DHT22;43217;52.694;6.214;2023-11-21T11:42:16;9.20;99.90
57390;DHT22;43217;52.694;6.214;2023-11-21T11:52:38;9.10;99.90
57390;DHT22;43217;52.694;6.214;2023-11-21T11:55:09;9.10;99.90
57390;DHT22;43217;52.694;6.214;2023-11-21T11:57:40;9.10;99.90
57390;DHT22;43217;52.694;6.214;2023-11-21T12:02:45;9.00;99.90
57390;DHT22;43217;52.694;6.214;2023-11-21T12:05:13;9.00;99.90
57390;DHT22;43217;52.694;6.214;2023-11-21T12:07:50;8.90;99.90
57390;DHT22;43217;52.694;6.214;2023-11-21T12:10:26;9.00;99.90
57390;DHT22;43217;52.694;6.214;2023-11-21T12:13:13;9.00;99.90
57390;DHT22;43217;52.694;6.214;2023-11-21T12:15:39;8.90;99.90
57390;DHT22;43217;52.694;6.214;2023-11-21T12:18:07;8.90;99.90
57390;DHT22;43217;52.694;6.214;2023-11-21T12:20:33;9.00;99.90
57390;DHT22;43217;52.694;6.214;2023-11-21T12:23:04;9.00;99.90
57390;DHT22;43217;52.694;6.214;2023-11-21T12:25:31;9.00;99.90
57390;DHT22;43217;52.694;6.214;2023-11-21T12:28:01;9.00;99.90
57390;DHT22;43217;52.694;6.214;2023-11-21T12:30:34;9.00;99.90
57390;DHT22;43217;52.694;6.214;2023-11-21T12:33:04;9.00;99.90
57390;DHT22;43217;52.694;6.214;2023-11-21T12:35:34;8.90;99.90
57390;DHT22;43217;52.694;6.214;2023-11-21T12:38:01;8.90;99.90
57390;DHT22;43217;52.694;6.214;2023-11-21T12:40:28;8.90;99.90
57390;DHT22;43217;52.694;6.214;2023-11-21T12:42:59;8.90;99.90
57390;DHT22;43217;52.694;6.214;2023-11-21T12:45:26;8.90;99.90
57390;DHT22;43217;52.694;6.214;2023-11-21T12:47:57;8.90;99.90
57390;DHT22;43217;52.694;6.214;2023-11-21T12:50:27;8.90;99.90
57390;DHT22;43217;52.694;6.214;2023-11-21T12:53:10;8.90;99.90
57390;DHT22;43217;52.694;6.214;2023-11-21T12:55:38;8.90;99.90
57390;DHT22;43217;52.694;6.214;2023-11-21T12:58:06;9.00;99.90
57390;DHT22;43217;52.694;6.214;2023-11-21T13:00:38;8.90;99.90
57390;DHT22;43217;52.694;6.214;2023-11-21T13:03:05;8.90;99.90
57390;DHT22;43217;52.694;6.214;2023-11-21T13:05:36;8.80;99.90
57390;DHT22;43217;52.694;6.214;2023-11-21T13:08:09;8.80;99.90
57390;DHT22;43217;52.694;6.214;2023-11-21T13:10:39;8.80;99.90
57390;DHT22;43217;52.694;6.214;2023-11-21T13:13:06;8.80;99.90
57390;DHT22;43217;52.694;6.214;2023-11-21T13:15:34;8.80;99.90
57390;DHT22;43217;52.694;6.214;2023-11-21T13:18:03;8.80;99.90
57390;DHT22;43217;52.694;6.214;2023-11-21T13:20:29;8.90;99.90
57390;DHT22;43217;52.694;6.214;2023-11-21T13:22:58;8.80;99.90
57390;DHT22;43217;52.694;6.214;2023-11-21T13:25:33;8.90;99.90
57390;DHT22;43217;52.694;6.214;2023-11-21T13:28:00;8.90;99.90
57390;DHT22;43217;52.694;6.214;2023-11-21T13:30:29;8.90;99.90
57390;DHT22;43217;52.694;6.214;2023-11-21T13:33:01;8.90;99.90
57390;DHT22;43217;52.694;6.214;2023-11-21T13:35:31;8.90;99.90
57390;DHT22;43217;52.694;6.214;2023-11-21T13:38:07;8.90;99.90
57390;DHT22;43217;52.694;6.214;2023-11-21T13:40:35;8.90;99.90
57390;DHT22;43217;52.694;6.214;2023-11-21T13:43:08;9.00;99.90
57390;DHT22;43217;52.694;6.214;2023-11-21T13:45:39;9.00;99.90
57390;DHT22;43217;52.694;6.214;2023-11-21T13:48:06;8.90;99.90
57390;DHT22;43217;52.694;6.214;2023-11-21T13:50:36;9.00;99.90
57390;DHT22;43217;52.694;6.214;2023-11-21T13:53:02;8.90;99.90
57390;DHT22;43217;52.694;6.214;2023-11-21T13:55:36;8.90;99.90
57390;DHT22;43217;52.694;6.214;2023-11-21T13:58:02;8.90;99.90
57390;DHT22;43217;52.694;6.214;2023-11-21T14:00:29;8.90;99.90
57390;DHT22;43217;52.694;6.214;2023-11-21T14:03:11;8.80;99.90
57390;DHT22;43217;52.694;6.214;2023-11-21T14:05:45;8.80;99.90
57390;DHT22;43217;52.694;6.214;2023-11-21T14:08:13;8.70;99.90
57390;DHT22;43217;52.694;6.214;2023-11-21T14:10:42;8.70;99.90
57390;DHT22;43217;52.694;6.214;2023-11-21T14:13:09;8.60;99.90
57390;DHT22;43217;52.694;6.214;2023-11-21T14:15:39;8.50;99.90
57390;DHT22;43217;52.694;6.214;2023-11-21T14:18:08;8.50;99.90
57390;DHT22;43217;52.694;6.214;2023-11-21T14:20:37;8.50;99.90
57390;DHT22;43217;52.694;6.214;2023-11-21T14:23:04;8.50;99.90
57390;DHT22;43217;52.694;6.214;2023-11-21T14:25:36;8.50;99.90
57390;DHT22;43217;52.694;6.214;2023-11-21T14:28:03;8.50;99.90
57390;DHT22;43217;52.694;6.214;2023-11-21T14:30:32;8.50;99.90
57390;DHT22;43217;52.694;6.214;2023-11-21T14:32:59;8.50;99.90
57390;DHT22;43217;52.694;6.214;2023-11-21T14:35:26;8.50;99.90
57390;DHT22;43217;52.694;6.214;2023-11-21T14:37:52;8.40;99.90
57390;DHT22;43217;52.694;6.214;2023-11-21T14:40:18;8.40;99.90
57390;DHT22;43217;52.694;6.214;2023-11-21T14:42:48;8.40;99.90
57390;DHT22;43217;52.694;6.214;2023-11-21T14:45:13;8.40;99.90
57390;DHT22;43217;52.694;6.214;2023-11-21T14:47:44;8.40;99.90
57390;DHT22;43217;52.694;6.214;2023-11-21T14:50:16;8.40;99.90
57390;DHT22;43217;52.694;6.214;2023-11-21T14:53:00;8.30;99.90
57390;DHT22;43217;52.694;6.214;2023-11-21T14:55:30;8.30;99.90
57390;DHT22;43217;52.694;6.214;2023-11-21T14:58:05;8.30;99.90
57390;DHT22;43217;52.694;6.214;2023-11-21T15:00:31;8.30;99.90
57390;DHT22;43217;52.694;6.214;2023-11-21T15:02:59;8.20;99.90
57390;DHT22;43217;52.694;6.214;2023-11-21T15:05:26;8.20;99.90
57390;DHT22;43217;52.694;6.214;2023-11-21T15:07:53;8.20;99.90
57390;DHT22;43217;52.694;6.214;2023-11-21T15:10:22;8.20;99.90
57390;DHT22;43217;52.694;6.214;2023-11-21T15:12:54;8.20;99.90
57390;DHT22;43217;52.694;6.214;2023-11-21T15:15:20;8.20;99.90
57390;DHT22;43217;52.694;6.214;2023-11-21T15:17:46;8.30;99.90
57390;DHT22;43217;52.694;6.214;2023-11-21T15:20:13;8.30;99.90
57390;DHT22;43217;52.694;6.214;2023-11-21T15:22:47;8.30;99.90
57390;DHT22;43217;52.694;6.214;2023-11-21T15:25:13;8.20;99.90
57390;DHT22;43217;52.694;6.214;2023-11-21T15:27:39;8.30;99.90
57390;DHT22;43217;52.694;6.214;2023-11-21T15:30:05;8.30;99.90
57390;DHT22;43217;52.694;6.214;2023-11-21T15:32:31;8.30;99.90
57390;DHT22;43217;52.694;6.214;2023-11-21T15:34:57;8.30;99.90
57390;DHT22;43217;52.694;6.214;2023-11-21T15:37:22;8.30;99.90
57390;DHT22;43217;52.694;6.214;2023-11-21T15:39:48;8.30;99.90
57390;DHT22;43217;52.694;6.214;2023-11-21T15:42:14;8.30;99.90
57390;DHT22;43217;52.694;6.214;2023-11-21T15:44:40;8.20;99.90
57390;DHT22;43217;52.694;6.214;2023-11-21T15:47:05;8.30;99.90
57390;DHT22;43217;52.694;6.214;2023-11-21T15:49:34;8.20;99.90
57390;DHT22;43217;52.694;6.214;2023-11-21T15:52:02;8.20;99.90
57390;DHT22;43217;52.694;6.214;2023-11-21T15:54:29;8.20;99.90
57390;DHT22;43217;52.694;6.214;2023-11-21T15:56:55;8.20;99.90
57390;DHT22;43217;52.694;6.214;2023-11-21T15:59:23;8.20;99.90